Time;durP1;ratioP1;P1;durP2;ratioP2;P2;SDS_P1;SDS_P2;PMS_P1;PMS_P2;Temp;Humidity;BMP_temperature;BMP_pressure;BME280_temperature;BME280_humidity;BME280_pressure;Samples;Min_cycle;Max_cycle;Signal;HPM_P1;HPM_P2
2021/07/19 00:01:54;;;;;;;4.00;3.70;;;27.50;53.50;;;;;;4942710;28;20455;-49
2021/07/19 00:04:19;;;;;;;4.17;3.47;;;27.40;53.50;;;;;;4943416;28;20620;-50
2021/07/19 00:06:45;;;;;;;6.60;3.43;;;27.30;53.80;;;;;;4941210;28;20456;-53
2021/07/19 00:09:11;;;;;;;3.53;2.70;;;27.30;53.80;;;;;;4941840;28;20212;-49
2021/07/19 00:11:37;;;;;;;3.17;2.70;;;27.30;53.70;;;;;;4941829;28;20196;-48
2021/07/19 00:14:04;;;;;;;3.30;3.00;;;27.30;53.80;;;;;;4944227;28;20230;-51
2021/07/19 00:16:30;;;;;;;2.90;2.70;;;27.30;53.90;;;;;;4941060;28;20451;-52
2021/07/19 00:18:55;;;;;;;6.40;3.17;;;27.20;54.10;;;;;;4942489;28;20487;-50
2021/07/19 00:21:22;;;;;;;2.90;2.70;;;27.20;54.00;;;;;;4942471;28;20455;-49
2021/07/19 00:23:47;;;;;;;4.83;3.77;;;27.20;53.90;;;;;;4945646;28;20212;-51
2021/07/19 00:26:15;;;;;;;3.80;3.20;;;27.20;53.90;;;;;;4939123;28;21116;-53
2021/07/19 00:28:40;;;;;;;3.00;2.63;;;27.20;54.10;;;;;;4937764;28;20572;-48
2021/07/19 00:31:06;;;;;;;3.53;3.23;;;27.10;54.70;;;;;;4942392;28;20446;-50
2021/07/19 00:33:32;;;;;;;4.10;3.53;;;27.10;53.90;;;;;;4942980;28;20231;-51
2021/07/19 00:35:57;;;;;;;3.50;3.27;;;27.10;53.90;;;;;;4940163;28;20258;-48
2021/07/19 00:38:23;;;;;;;3.80;3.50;;;27.00;54.10;;;;;;4943897;28;20199;-50
2021/07/19 00:40:49;;;;;;;3.83;2.80;;;27.00;54.30;;;;;;4943126;28;20318;-48
2021/07/19 00:43:14;;;;;;;3.60;3.33;;;26.90;54.20;;;;;;4941691;28;20191;-51
2021/07/19 00:45:40;;;;;;;3.43;2.90;;;27.00;54.10;;;;;;4941135;28;20223;-51
2021/07/19 00:48:06;;;;;;;4.00;3.00;;;27.00;53.70;;;;;;4942465;28;20188;-49
2021/07/19 00:50:35;;;;;;;3.00;2.80;;;27.00;53.90;;;;;;4945724;28;20203;-52
2021/07/19 00:53:02;;;;;;;3.60;3.30;;;26.90;54.20;;;;;;4943568;28;20506;-47
2021/07/19 00:55:33;;;;;;;3.20;2.90;;;26.80;54.50;;;;;;4939672;28;20454;-50
2021/07/19 00:58:02;;;;;;;2.97;2.77;;;26.80;54.30;;;;;;4941010;28;20467;-48
2021/07/19 01:00:28;;;;;;;2.50;2.30;;;26.70;54.40;;;;;;4941976;28;20538;-51
2021/07/19 01:02:55;;;;;;;7.07;2.57;;;26.70;54.40;;;;;;4941758;28;20785;-50
2021/07/19 01:05:21;;;;;;;3.17;2.97;;;26.80;54.20;;;;;;4945621;28;20451;-48
2021/07/19 01:07:48;;;;;;;6.47;2.83;;;26.80;54.40;;;;;;4946338;28;20439;-50
2021/07/19 01:10:19;;;;;;;4.17;2.93;;;26.80;54.20;;;;;;4943295;28;20197;-50
2021/07/19 01:12:50;;;;;;;3.10;2.73;;;26.80;54.00;;;;;;4944479;28;20981;-49
2021/07/19 01:15:17;;;;;;;3.57;3.27;;;26.60;54.40;;;;;;4944332;28;20449;-48
2021/07/19 01:17:43;;;;;;;3.20;2.90;;;26.70;54.40;;;;;;4944870;28;21323;-48
2021/07/19 01:20:10;;;;;;;3.53;3.23;;;26.60;54.50;;;;;;4943640;28;20530;-50
2021/07/19 01:23:13;;;;;;;3.53;2.93;;;26.50;54.60;;;;;;4942336;28;20267;-49
2021/07/19 01:25:49;;;;;;;3.10;2.90;;;26.50;54.50;;;;;;4941159;28;20540;-51
2021/07/19 01:28:35;;;;;;;3.67;2.37;;;26.50;54.50;;;;;;4941923;28;20458;-51
2021/07/19 01:31:07;;;;;;;3.23;2.90;;;26.50;54.70;;;;;;4947097;28;20455;-50
2021/07/19 01:33:34;;;;;;;4.07;3.20;;;26.40;54.60;;;;;;4955115;29;20490;-53
2021/07/19 01:36:00;;;;;;;4.73;2.90;;;26.40;54.70;;;;;;4942269;28;20490;-48
2021/07/19 01:38:28;;;;;;;3.10;2.73;;;26.40;54.50;;;;;;4946424;28;22174;-50
2021/07/19 01:40:54;;;;;;;4.30;3.10;;;26.50;55.00;;;;;;4948196;28;20514;-49
2021/07/19 01:43:22;;;;;;;5.03;2.87;;;26.50;54.70;;;;;;4946396;28;20546;-52
2021/07/19 01:45:49;;;;;;;3.93;2.90;;;26.50;54.60;;;;;;4945676;28;20534;-48
2021/07/19 01:48:15;;;;;;;3.07;2.87;;;26.50;54.40;;;;;;4945105;28;21014;-50
2021/07/19 01:50:41;;;;;;;3.40;3.10;;;26.50;54.50;;;;;;4946455;28;20465;-52
2021/07/19 01:53:08;;;;;;;4.60;3.27;;;26.40;54.50;;;;;;4946638;28;21755;-50
2021/07/19 01:55:34;;;;;;;8.33;3.10;;;26.30;54.80;;;;;;4945900;28;20443;-52
2021/07/19 01:58:00;;;;;;;3.00;2.70;;;26.30;54.90;;;;;;4946292;28;20449;-51
2021/07/19 02:00:27;;;;;;;2.90;2.70;;;26.20;55.10;;;;;;4946012;28;21007;-47
2021/07/19 02:02:53;;;;;;;2.97;2.53;;;26.20;55.10;;;;;;4944880;28;20451;-52
2021/07/19 02:05:24;;;;;;;4.07;3.27;;;26.30;54.80;;;;;;4946225;28;20974;-51
2021/07/19 02:07:52;;;;;;;5.70;3.50;;;26.30;54.50;;;;;;4947326;28;20196;-50
2021/07/19 02:10:18;;;;;;;3.07;2.87;;;26.30;54.50;;;;;;4945801;28;20658;-48
2021/07/19 02:12:45;;;;;;;4.33;3.43;;;26.20;54.60;;;;;;4950157;28;20486;-50
2021/07/19 02:15:20;;;;;;;3.57;2.90;;;26.20;54.80;;;;;;4944410;28;20542;-52
2021/07/19 02:17:55;;;;;;;3.43;2.40;;;26.20;54.70;;;;;;4924692;28;20486;-48
2021/07/19 02:20:24;;;;;;;3.03;2.73;;;26.20;54.70;;;;;;4947404;28;21002;-47
2021/07/19 02:22:50;;;;;;;2.60;2.40;;;26.10;54.90;;;;;;4946975;28;20463;-47
2021/07/19 02:25:17;;;;;;;3.30;2.50;;;26.10;54.70;;;;;;4945640;28;20454;-49
2021/07/19 02:27:46;;;;;;;3.23;2.90;;;26.00;55.00;;;;;;4946683;28;20546;-47
2021/07/19 02:30:15;;;;;;;4.97;3.07;;;26.00;55.00;;;;;;4947600;28;20509;-48
2021/07/19 02:32:43;;;;;;;3.00;2.80;;;26.10;54.60;;;;;;4947232;28;20489;-47
2021/07/19 02:35:11;;;;;;;3.33;2.80;;;26.20;54.60;;;;;;4946762;28;20550;-48
2021/07/19 02:37:38;;;;;;;3.90;3.17;;;26.10;54.60;;;;;;4945907;28;20879;-48
2021/07/19 02:40:09;;;;;;;3.57;2.20;;;26.10;54.50;;;;;;4946866;28;20562;-53
2021/07/19 02:42:38;;;;;;;2.87;2.67;;;26.10;54.60;;;;;;4945515;28;20487;-47
2021/07/19 02:45:07;;;;;;;2.97;2.67;;;26.10;54.30;;;;;;4943367;28;20462;-51
2021/07/19 02:47:33;;;;;;;3.50;3.03;;;26.00;54.70;;;;;;4947116;28;20444;-49
2021/07/19 02:50:01;;;;;;;3.13;2.60;;;25.90;54.70;;;;;;4944308;28;20459;-53
2021/07/19 02:52:27;;;;;;;3.37;3.07;;;25.90;54.70;;;;;;4944735;28;20443;-51
2021/07/19 02:54:53;;;;;;;2.70;2.60;;;26.00;54.50;;;;;;4947085;28;20531;-52
2021/07/19 02:57:19;;;;;;;4.20;3.40;;;26.20;52.80;;;;;;4944352;28;20534;-51
2021/07/19 02:59:45;;;;;;;3.60;2.97;;;26.20;52.20;;;;;;4945010;28;20546;-54
2021/07/19 03:02:11;;;;;;;3.17;2.97;;;26.00;52.40;;;;;;4945482;28;20676;-49
2021/07/19 03:04:40;;;;;;;3.40;3.20;;;25.80;53.00;;;;;;4947147;28;20456;-48
2021/07/19 03:07:07;;;;;;;4.57;3.40;;;25.60;53.70;;;;;;4944525;28;20466;-51
2021/07/19 03:09:39;;;;;;;3.43;3.13;;;25.40;54.20;;;;;;4945609;28;20447;-51
2021/07/19 03:12:06;;;;;;;4.83;3.37;;;25.20;54.70;;;;;;4947724;28;20466;-50
2021/07/19 03:14:35;;;;;;;4.03;3.40;;;25.00;55.10;;;;;;4944653;28;20582;-49
2021/07/19 03:17:02;;;;;;;3.07;2.77;;;24.80;55.30;;;;;;4943650;28;20455;-51
2021/07/19 03:19:28;;;;;;;3.37;3.07;;;24.70;55.60;;;;;;4945288;28;20466;-50
2021/07/19 03:21:58;;;;;;;4.37;3.03;;;24.60;55.90;;;;;;4943753;28;20451;-52
2021/07/19 03:24:26;;;;;;;3.10;2.90;;;24.50;56.20;;;;;;4945198;28;20478;-50
2021/07/19 03:26:53;;;;;;;5.43;3.60;;;24.40;56.40;;;;;;4944384;28;20447;-49
2021/07/19 03:29:20;;;;;;;3.57;3.27;;;24.30;56.70;;;;;;4946820;28;20519;-50
2021/07/19 03:31:48;;;;;;;3.80;3.10;;;24.20;56.90;;;;;;4943894;28;20612;-52
2021/07/19 03:34:15;;;;;;;5.77;3.90;;;24.10;56.90;;;;;;4944998;28;20499;-48
2021/07/19 03:36:41;;;;;;;4.00;3.00;;;24.00;56.90;;;;;;4945448;28;20448;-51
2021/07/19 03:39:08;;;;;;;3.90;3.60;;;23.90;57.10;;;;;;4943496;28;20505;-51
2021/07/19 03:41:34;;;;;;;4.10;3.80;;;23.90;57.20;;;;;;4942554;28;20448;-51
2021/07/19 03:44:01;;;;;;;4.53;3.80;;;23.80;57.30;;;;;;4945783;28;20959;-48
2021/07/19 03:46:27;;;;;;;3.70;3.40;;;23.70;57.50;;;;;;4946085;28;20731;-50
2021/07/19 03:48:53;;;;;;;3.33;3.13;;;23.60;57.70;;;;;;4943980;28;20486;-50
2021/07/19 03:51:21;;;;;;;4.53;4.13;;;23.60;57.90;;;;;;4941842;28;20479;-52
2021/07/19 03:53:46;;;;;;;4.17;3.80;;;23.50;58.00;;;;;;4944507;28;20919;-52
2021/07/19 03:56:13;;;;;;;3.30;3.00;;;23.50;57.90;;;;;;4941021;28;20538;-51
2021/07/19 03:58:39;;;;;;;3.83;3.53;;;23.40;57.80;;;;;;4943513;28;20208;-50
2021/07/19 04:01:05;;;;;;;5.57;3.47;;;23.40;57.90;;;;;;4941206;28;20506;-52
2021/07/19 04:03:44;;;;;;;4.90;3.37;;;23.30;58.00;;;;;;4942090;28;20538;-49
2021/07/19 04:06:22;;;;;;;3.60;3.30;;;23.30;58.10;;;;;;4942931;28;20455;-54
2021/07/19 04:08:49;;;;;;;3.93;3.40;;;23.30;58.30;;;;;;4944751;28;20449;-53
2021/07/19 04:11:17;;;;;;;4.33;3.93;;;23.20;59.10;;;;;;4943559;28;20458;-52
2021/07/19 04:13:44;;;;;;;4.03;3.43;;;23.20;58.70;;;;;;4947182;28;20489;-52
2021/07/19 04:16:14;;;;;;;3.97;3.67;;;23.10;58.70;;;;;;4944490;28;20943;-52
2021/07/19 04:18:40;;;;;;;3.60;3.30;;;23.10;58.70;;;;;;4945491;28;20472;-53
2021/07/19 04:21:06;;;;;;;4.30;3.97;;;23.10;58.90;;;;;;4944386;28;20458;-53
2021/07/19 04:23:32;;;;;;;4.30;3.90;;;23.10;58.90;;;;;;4943644;28;20418;-52
2021/07/19 04:25:58;;;;;;;3.97;3.67;;;23.10;59.10;;;;;;4943113;28;21049;-53
2021/07/19 04:28:24;;;;;;;4.70;4.30;;;23.10;59.20;;;;;;4943327;28;20531;-52
2021/07/19 04:30:51;;;;;;;6.63;4.10;;;23.10;59.30;;;;;;4944150;28;20203;-48
2021/07/19 04:33:18;;;;;;;3.80;3.40;;;23.10;59.50;;;;;;4943797;28;20224;-53
2021/07/19 04:35:46;;;;;;;4.20;3.67;;;23.10;59.50;;;;;;4941244;28;20447;-51
2021/07/19 04:38:16;;;;;;;8.10;3.70;;;23.10;59.60;;;;;;4942300;28;20460;-48
2021/07/19 04:40:48;;;;;;;4.40;4.00;;;23.10;59.70;;;;;;4943972;28;20993;-54
2021/07/19 04:43:17;;;;;;;4.60;3.00;;;23.10;59.80;;;;;;4942991;28;20467;-52
2021/07/19 04:45:47;;;;;;;6.77;3.30;;;23.00;65.70;;;;;;4944579;28;20486;-49
2021/07/19 04:48:14;;;;;;;4.60;3.53;;;23.10;65.10;;;;;;4946930;28;20487;-49
2021/07/19 04:50:40;;;;;;;10.23;3.13;;;23.50;62.60;;;;;;4946237;28;20522;-52
2021/07/19 04:53:06;;;;;;;4.27;3.57;;;23.90;60.40;;;;;;4944976;28;20447;-50
2021/07/19 04:55:34;;;;;;;4.80;3.30;;;24.10;59.20;;;;;;4943616;28;20485;-52
2021/07/19 04:58:01;;;;;;;8.33;6.07;;;24.30;58.40;;;;;;4940197;28;20451;-50
2021/07/19 05:00:29;;;;;;;8.33;4.23;;;24.40;57.90;;;;;;4943933;28;20457;-49
2021/07/19 05:02:57;;;;;;;7.30;5.43;;;24.50;57.40;;;;;;4943618;28;20444;-52
2021/07/19 05:05:25;;;;;;;5.70;4.70;;;24.60;57.10;;;;;;4951641;28;20452;-50
2021/07/19 05:07:52;;;;;;;4.77;4.10;;;24.70;56.90;;;;;;4955083;29;20439;-53
2021/07/19 05:10:20;;;;;;;5.33;4.10;;;24.70;56.70;;;;;;4954184;29;20443;-50
2021/07/19 05:12:49;;;;;;;6.40;4.77;;;24.70;56.60;;;;;;4956608;29;20535;-47
2021/07/19 05:15:15;;;;;;;4.73;4.30;;;24.80;56.40;;;;;;4943476;29;20498;-50
2021/07/19 05:17:42;;;;;;;6.37;3.73;;;24.80;56.30;;;;;;4956366;29;20533;-49
2021/07/19 05:20:12;;;;;;;4.27;3.50;;;24.90;56.30;;;;;;4955503;28;20192;-51
2021/07/19 05:22:44;;;;;;;5.07;3.60;;;25.00;56.30;;;;;;4954956;28;20502;-48
2021/07/19 05:25:10;;;;;;;6.27;4.20;;;25.00;56.00;;;;;;4954286;29;20534;-49
2021/07/19 05:27:37;;;;;;;6.20;4.10;;;25.00;56.00;;;;;;4955959;29;20458;-49
2021/07/19 05:30:03;;;;;;;5.60;4.43;;;25.20;56.00;;;;;;4955436;28;20834;-48
2021/07/19 05:32:29;;;;;;;4.37;4.03;;;25.20;56.00;;;;;;4952908;28;20427;-48
2021/07/19 05:34:54;;;;;;;3.80;3.50;;;25.20;55.90;;;;;;4953977;28;20502;-47
2021/07/19 05:37:20;;;;;;;5.03;4.23;;;25.20;55.90;;;;;;4954890;29;20194;-51
2021/07/19 05:39:46;;;;;;;5.00;4.50;;;25.20;55.90;;;;;;4950978;28;20204;-48
2021/07/19 05:42:12;;;;;;;4.53;4.13;;;25.20;56.00;;;;;;4952104;28;21006;-51
2021/07/19 05:44:37;;;;;;;5.03;4.10;;;25.10;56.10;;;;;;4953595;29;20195;-51
2021/07/19 05:47:04;;;;;;;7.20;4.60;;;25.00;56.40;;;;;;4951193;29;20204;-52
2021/07/19 05:49:30;;;;;;;5.60;3.87;;;25.00;56.80;;;;;;4955731;29;20604;-52
2021/07/19 05:51:55;;;;;;;4.90;4.47;;;25.00;57.00;;;;;;4954107;29;20494;-50
2021/07/19 05:54:21;;;;;;;4.87;4.23;;;24.90;57.00;;;;;;4937395;29;20228;-50
2021/07/19 05:56:46;;;;;;;4.70;4.40;;;24.90;57.40;;;;;;4949204;29;20567;-48
2021/07/19 05:59:12;;;;;;;4.80;4.37;;;24.80;57.30;;;;;;4954573;29;20631;-48
2021/07/19 06:01:38;;;;;;;6.13;4.70;;;24.80;57.50;;;;;;4954968;29;20214;-53
2021/07/19 06:04:03;;;;;;;6.50;5.17;;;24.90;57.70;;;;;;4954964;28;20251;-48
2021/07/19 06:06:31;;;;;;;4.23;3.93;;;24.80;58.70;;;;;;4955046;29;20200;-50
2021/07/19 06:08:56;;;;;;;11.43;4.67;;;24.80;58.10;;;;;;4954815;28;20196;-48
2021/07/19 06:11:22;;;;;;;4.80;4.20;;;25.00;58.10;;;;;;4948592;29;20446;-48
2021/07/19 06:13:47;;;;;;;8.10;5.27;;;25.00;58.00;;;;;;4950113;29;20239;-49
2021/07/19 06:16:13;;;;;;;5.43;4.80;;;25.00;57.80;;;;;;4935671;29;20544;-50
2021/07/19 06:18:38;;;;;;;5.40;4.77;;;25.00;57.60;;;;;;4943943;29;20231;-54
2021/07/19 06:21:04;;;;;;;12.70;5.23;;;25.10;57.90;;;;;;4942562;29;20617;-47
2021/07/19 06:23:30;;;;;;;5.60;4.80;;;25.20;58.00;;;;;;4936579;29;20204;-50
2021/07/19 06:25:55;;;;;;;7.80;4.40;;;25.20;58.00;;;;;;4934501;29;20288;-48
2021/07/19 06:28:22;;;;;;;13.40;5.83;;;25.30;58.00;;;;;;4935959;29;20672;-47
2021/07/19 06:30:48;;;;;;;5.20;4.73;;;25.40;57.70;;;;;;4935954;29;20196;-47
2021/07/19 06:33:13;;;;;;;5.10;4.67;;;25.50;57.50;;;;;;4941950;29;20431;-49
2021/07/19 06:35:39;;;;;;;4.97;4.47;;;25.40;57.50;;;;;;4942702;29;20207;-46
2021/07/19 06:38:05;;;;;;;6.17;4.70;;;25.60;57.20;;;;;;4935649;29;20279;-49
2021/07/19 06:40:30;;;;;;;5.17;4.70;;;25.70;57.10;;;;;;4946079;29;20563;-47
2021/07/19 06:42:56;;;;;;;5.77;5.33;;;25.80;57.00;;;;;;4936271;29;20221;-47
2021/07/19 06:45:21;;;;;;;5.53;5.00;;;25.90;56.50;;;;;;4936204;29;20568;-47
2021/07/19 06:47:47;;;;;;;5.20;4.73;;;26.10;56.40;;;;;;4948706;29;20623;-47
2021/07/19 06:50:13;;;;;;;6.33;5.23;;;26.20;56.30;;;;;;4955028;29;20200;-47
2021/07/19 06:52:40;;;;;;;5.70;5.20;;;26.30;56.00;;;;;;4953670;29;20192;-47
2021/07/19 06:55:07;;;;;;;5.50;4.90;;;26.40;55.80;;;;;;4954697;28;20487;-51
2021/07/19 06:57:33;;;;;;;5.77;4.93;;;26.50;56.20;;;;;;4954511;29;20427;-47
2021/07/19 06:59:59;;;;;;;6.60;4.30;;;26.70;56.40;;;;;;4955239;29;20486;-48
2021/07/19 07:02:25;;;;;;;5.93;4.50;;;26.80;56.00;;;;;;4954280;28;20207;-48
2021/07/19 07:04:50;;;;;;;5.03;4.60;;;26.90;56.10;;;;;;4955425;29;20432;-48
2021/07/19 07:07:16;;;;;;;6.80;4.57;;;27.10;55.80;;;;;;4954033;28;20191;-47
2021/07/19 07:09:41;;;;;;;4.80;4.10;;;27.20;55.30;;;;;;4955198;29;20195;-48
2021/07/19 07:12:08;;;;;;;4.37;4.07;;;27.30;55.70;;;;;;4936948;29;20208;-47
2021/07/19 07:14:33;;;;;;;6.03;4.27;;;27.40;54.90;;;;;;4954652;28;20589;-47
2021/07/19 07:16:59;;;;;;;4.50;4.13;;;27.50;55.30;;;;;;4953763;29;20419;-48
2021/07/19 07:19:24;;;;;;;5.67;5.17;;;27.70;54.90;;;;;;4953282;28;20192;-47
2021/07/19 07:21:50;;;;;;;6.43;4.53;;;27.80;54.60;;;;;;4935676;29;20191;-50
2021/07/19 07:24:16;;;;;;;4.90;4.33;;;27.80;53.70;;;;;;4935564;29;20203;-49
2021/07/19 07:26:41;;;;;;;4.70;4.40;;;28.00;53.90;;;;;;4934499;29;20664;-47
2021/07/19 07:29:07;;;;;;;7.43;4.87;;;28.00;53.10;;;;;;4935644;29;20476;-47
2021/07/19 07:31:33;;;;;;;5.00;4.60;;;28.10;53.10;;;;;;4934857;29;20279;-48
2021/07/19 07:33:59;;;;;;;5.77;4.60;;;28.20;53.30;;;;;;4946664;29;20231;-47
2021/07/19 07:36:26;;;;;;;5.47;4.27;;;28.30;53.70;;;;;;4953784;29;20206;-48
2021/07/19 07:38:52;;;;;;;5.53;4.57;;;28.40;53.40;;;;;;4954338;28;20450;-47
2021/07/19 07:41:18;;;;;;;4.77;4.27;;;28.50;52.80;;;;;;4953698;28;20463;-47
2021/07/19 07:43:44;;;;;;;4.90;4.60;;;28.40;52.00;;;;;;4954339;28;20808;-50
2021/07/19 07:46:11;;;;;;;5.40;4.90;;;28.50;52.20;;;;;;4952150;29;20423;-47
2021/07/19 07:48:37;;;;;;;6.80;4.70;;;28.50;52.50;;;;;;4953919;29;20192;-47
2021/07/19 07:51:05;;;;;;;6.20;4.40;;;28.60;51.70;;;;;;4953540;28;20435;-47
2021/07/19 07:53:30;;;;;;;5.63;5.13;;;28.80;51.80;;;;;;4954338;29;20475;-48
2021/07/19 07:55:57;;;;;;;4.70;4.30;;;28.90;52.30;;;;;;4953216;29;20796;-47
2021/07/19 07:58:27;;;;;;;6.70;5.27;;;29.00;51.40;;;;;;4953944;29;20196;-49
2021/07/19 08:00:53;;;;;;;5.10;4.50;;;29.10;51.20;;;;;;4953777;29;20430;-49
2021/07/19 08:03:19;;;;;;;5.00;4.70;;;29.20;51.00;;;;;;4940886;29;20421;-49
2021/07/19 08:05:45;;;;;;;5.00;4.50;;;29.40;51.30;;;;;;4934392;29;20476;-49
2021/07/19 08:08:10;;;;;;;5.03;4.63;;;29.50;50.50;;;;;;4934647;29;20192;-47
2021/07/19 08:10:36;;;;;;;5.07;4.57;;;29.60;50.20;;;;;;4934296;29;20232;-47
2021/07/19 08:13:03;;;;;;;4.80;4.40;;;29.70;49.90;;;;;;4933149;29;20204;-48
2021/07/19 08:15:29;;;;;;;4.43;4.13;;;29.90;50.50;;;;;;4933940;29;20211;-47
2021/07/19 08:17:55;;;;;;;5.73;5.13;;;30.00;49.80;;;;;;4936317;29;20468;-49
2021/07/19 08:20:20;;;;;;;5.20;4.47;;;30.10;49.00;;;;;;4946886;29;20434;-47
2021/07/19 08:22:48;;;;;;;5.37;4.97;;;30.20;49.10;;;;;;4934699;29;20201;-47
2021/07/19 08:25:17;;;;;;;5.30;4.90;;;30.20;48.60;;;;;;4934009;29;20236;-49
2021/07/19 08:27:46;;;;;;;5.63;4.47;;;30.20;48.80;;;;;;4934271;29;20512;-49
2021/07/19 08:30:13;;;;;;;4.97;4.37;;;30.30;49.20;;;;;;4934174;29;20447;-50
2021/07/19 08:32:39;;;;;;;5.37;4.63;;;30.50;48.10;;;;;;4935366;29;20431;-47
2021/07/19 08:35:09;;;;;;;4.67;4.20;;;30.40;47.50;;;;;;4953427;29;20577;-49
2021/07/19 08:37:39;;;;;;;5.30;4.80;;;30.50;48.80;;;;;;4952406;29;20428;-50
2021/07/19 08:40:07;;;;;;;5.93;4.40;;;30.60;48.90;;;;;;4957861;28;20443;-47
2021/07/19 08:42:34;;;;;;;6.20;4.47;;;30.70;48.30;;;;;;4959589;28;20977;-47
2021/07/19 08:45:00;;;;;;;4.83;4.33;;;30.90;48.20;;;;;;4959821;29;20494;-50
2021/07/19 08:47:26;;;;;;;4.97;4.43;;;31.00;48.10;;;;;;4958912;28;20498;-48
2021/07/19 08:49:51;;;;;;;4.73;4.33;;;31.10;47.50;;;;;;4960094;28;20907;-47
2021/07/19 08:52:18;;;;;;;4.80;4.00;;;31.30;46.90;;;;;;4959245;28;20230;-47
2021/07/19 08:54:47;;;;;;;6.03;4.40;;;31.40;47.90;;;;;;4959892;28;20657;-50
2021/07/19 08:57:15;;;;;;;6.17;4.63;;;31.50;46.20;;;;;;4958664;28;20441;-48
2021/07/19 08:59:41;;;;;;;4.70;4.30;;;31.60;45.70;;;;;;4960047;28;20432;-48
2021/07/19 09:02:10;;;;;;;5.03;4.53;;;31.80;45.40;;;;;;4959059;28;20804;-48
2021/07/19 09:04:37;;;;;;;4.50;4.10;;;31.90;44.90;;;;;;4958087;28;20699;-50
2021/07/19 09:07:03;;;;;;;5.93;4.57;;;32.10;45.10;;;;;;4958436;29;20470;-48
2021/07/19 09:09:31;;;;;;;4.73;4.43;;;32.10;44.40;;;;;;4959744;29;20433;-48
2021/07/19 09:11:59;;;;;;;6.53;4.50;;;32.10;46.30;;;;;;4959027;28;20429;-47
2021/07/19 09:14:25;;;;;;;4.87;4.50;;;32.30;45.50;;;;;;4959449;29;20496;-49
2021/07/19 09:16:52;;;;;;;5.03;4.53;;;32.40;45.00;;;;;;4958218;28;20490;-48
2021/07/19 09:19:23;;;;;;;4.97;4.57;;;32.40;43.80;;;;;;4959617;29;20477;-47
2021/07/19 09:21:56;;;;;;;7.63;4.60;;;32.40;43.60;;;;;;4941112;29;20440;-47
2021/07/19 09:24:24;;;;;;;6.17;4.73;;;32.20;43.60;;;;;;4955378;28;20440;-47
2021/07/19 09:26:51;;;;;;;5.30;4.37;;;32.30;45.00;;;;;;4939369;29;21003;-47
2021/07/19 09:29:19;;;;;;;4.70;4.30;;;32.50;45.80;;;;;;4940383;29;20494;-48
2021/07/19 09:31:59;;;;;;;4.40;4.10;;;32.80;44.90;;;;;;4938353;29;20432;-49
2021/07/19 09:34:27;;;;;;;4.10;3.80;;;33.00;45.40;;;;;;4955137;29;20483;-48
2021/07/19 09:36:54;;;;;;;4.10;3.80;;;33.20;43.60;;;;;;4958896;28;20794;-48
2021/07/19 09:39:20;;;;;;;4.37;4.00;;;33.40;42.60;;;;;;4959472;29;20842;-48
2021/07/19 09:41:46;;;;;;;8.20;4.63;;;33.60;42.80;;;;;;4958823;29;20482;-48
2021/07/19 09:44:11;;;;;;;4.60;4.20;;;33.70;42.40;;;;;;4959397;28;20475;-49
2021/07/19 09:46:37;;;;;;;4.60;4.30;;;33.90;40.60;;;;;;4958530;28;20198;-49
2021/07/19 09:49:03;;;;;;;12.03;4.53;;;34.10;40.90;;;;;;4959436;28;20226;-48
2021/07/19 09:51:30;;;;;;;5.73;4.47;;;34.20;40.20;;;;;;4955416;28;20196;-48
2021/07/19 09:54:13;;;;;;;5.30;4.80;;;34.20;40.00;;;;;;4956365;29;20490;-50
2021/07/19 09:56:41;;;;;;;4.67;4.20;;;34.30;39.20;;;;;;4955554;29;20541;-49
2021/07/19 09:59:13;;;;;;;6.63;4.00;;;34.40;39.70;;;;;;4954549;29;20992;-48
2021/07/19 10:01:43;;;;;;;4.40;4.10;;;34.50;39.60;;;;;;4955872;28;20424;-48
2021/07/19 10:04:10;;;;;;;6.53;4.30;;;34.40;39.70;;;;;;4956046;29;20461;-47
2021/07/19 10:06:37;;;;;;;4.93;4.20;;;34.40;39.70;;;;;;4954968;29;20936;-48
2021/07/19 10:09:06;;;;;;;4.70;4.20;;;34.50;39.40;;;;;;4955650;29;20439;-48
2021/07/19 10:11:34;;;;;;;4.57;4.27;;;34.40;39.70;;;;;;4955324;29;20436;-50
2021/07/19 10:14:00;;;;;;;5.13;4.70;;;34.40;40.70;;;;;;4943481;29;20861;-48
2021/07/19 10:16:28;;;;;;;4.47;3.73;;;34.50;40.00;;;;;;4954908;28;20434;-48
2021/07/19 10:18:55;;;;;;;5.47;3.70;;;34.60;39.10;;;;;;4955361;28;20470;-48
2021/07/19 10:21:29;;;;;;;4.10;3.80;;;34.70;38.50;;;;;;4940812;28;20441;-48
2021/07/19 10:24:04;;;;;;;4.00;3.70;;;34.90;39.00;;;;;;4935111;29;20805;-49
2021/07/19 10:26:30;;;;;;;5.13;4.53;;;35.00;37.00;;;;;;4935543;29;20447;-49
2021/07/19 10:28:57;;;;;;;3.80;3.40;;;35.00;36.50;;;;;;4936450;29;20972;-49
2021/07/19 10:31:24;;;;;;;4.23;3.93;;;34.80;36.10;;;;;;4935973;29;20472;-47
2021/07/19 10:33:51;;;;;;;4.43;3.37;;;34.90;37.80;;;;;;4947150;28;20490;-48
2021/07/19 10:36:26;;;;;;;4.00;3.60;;;35.10;36.70;;;;;;4954800;29;20531;-48
2021/07/19 10:38:55;;;;;;;3.50;3.30;;;35.10;36.60;;;;;;4955310;28;20869;-48
2021/07/19 10:41:23;;;;;;;4.37;3.97;;;35.10;37.80;;;;;;4954889;28;20436;-48
2021/07/19 10:43:59;;;;;;;4.63;3.67;;;35.10;37.40;;;;;;4955341;29;20938;-48
2021/07/19 10:46:26;;;;;;;3.80;3.50;;;35.30;38.70;;;;;;4954400;29;20474;-48
2021/07/19 10:49:02;;;;;;;3.70;3.40;;;35.50;36.00;;;;;;4955140;28;20435;-48
2021/07/19 10:51:45;;;;;;;4.07;3.67;;;35.60;35.90;;;;;;4953189;29;20577;-48
2021/07/19 10:54:13;;;;;;;5.70;3.63;;;35.70;35.10;;;;;;4955190;28;20490;-49
2021/07/19 10:56:38;;;;;;;3.77;3.47;;;35.60;35.10;;;;;;4953970;29;20880;-48
2021/07/19 10:59:04;;;;;;;4.13;3.30;;;35.40;35.30;;;;;;4955116;29;20435;-48
2021/07/19 11:01:31;;;;;;;3.50;3.20;;;35.30;35.30;;;;;;4954403;28;20191;-48
2021/07/19 11:03:59;;;;;;;4.30;3.90;;;35.20;36.00;;;;;;4954800;29;20204;-48
2021/07/19 11:06:47;;;;;;;4.80;3.77;;;35.40;36.30;;;;;;4953939;29;21269;-48
2021/07/19 11:09:13;;;;;;;5.77;3.43;;;35.40;35.20;;;;;;4954889;28;20527;-48
2021/07/19 11:11:40;;;;;;;3.37;3.17;;;35.60;34.80;;;;;;4954212;28;20435;-50
2021/07/19 11:14:20;;;;;;;3.90;3.50;;;35.70;34.30;;;;;;4954797;29;20581;-49
2021/07/19 11:16:53;;;;;;;3.40;3.10;;;35.70;33.80;;;;;;4952214;29;20443;-48
2021/07/19 11:19:39;;;;;;;3.90;3.50;;;35.60;33.70;;;;;;4954664;29;20534;-48
2021/07/19 11:22:26;;;;;;;4.50;3.30;;;35.60;34.10;;;;;;4946912;29;20444;-52
2021/07/19 11:24:57;;;;;;;4.03;3.63;;;35.60;34.50;;;;;;4935457;29;20436;-49
2021/07/19 11:27:49;;;;;;;3.57;3.30;;;35.70;33.80;;;;;;4934612;29;20483;-48
2021/07/19 11:30:22;;;;;;;3.67;3.37;;;35.70;33.70;;;;;;4932710;29;20858;-51
2021/07/19 11:32:49;;;;;;;3.93;3.53;;;35.80;34.80;;;;;;4937496;29;20444;-48
2021/07/19 11:35:23;;;;;;;3.53;3.23;;;35.90;35.40;;;;;;4953676;28;21014;-49
2021/07/19 11:37:51;;;;;;;4.17;3.37;;;36.00;34.60;;;;;;4953696;29;20463;-48
2021/07/19 11:40:32;;;;;;;4.73;3.60;;;36.00;34.30;;;;;;4954293;29;20424;-48
2021/07/19 11:43:18;;;;;;;3.23;2.87;;;36.20;35.10;;;;;;4952895;29;20450;-53
2021/07/19 11:45:47;;;;;;;6.10;3.07;;;36.40;34.00;;;;;;4953678;29;20455;-48
2021/07/19 11:48:13;;;;;;;3.50;3.30;;;36.30;33.20;;;;;;4953926;29;20854;-48
2021/07/19 11:50:39;;;;;;;3.40;3.10;;;36.00;33.80;;;;;;4953711;28;20424;-48
2021/07/19 11:53:05;;;;;;;3.90;3.03;;;36.00;34.90;;;;;;4954268;28;20824;-48
2021/07/19 11:55:30;;;;;;;4.37;3.60;;;36.00;35.50;;;;;;4953544;29;20231;-48
2021/07/19 11:58:02;;;;;;;5.73;3.47;;;36.00;35.20;;;;;;4954010;29;20783;-48
2021/07/19 12:00:28;;;;;;;3.33;3.03;;;36.10;34.60;;;;;;4953454;29;20638;-48
2021/07/19 12:03:11;;;;;;;3.50;2.50;;;36.20;31.50;;;;;;4953955;28;20428;-48
2021/07/19 12:05:39;;;;;;;3.43;3.20;;;36.30;32.30;;;;;;4953288;29;20641;-48
2021/07/19 12:08:07;;;;;;;4.70;3.57;;;36.40;32.80;;;;;;4953365;29;20943;-48
2021/07/19 12:10:34;;;;;;;3.50;3.20;;;36.40;34.90;;;;;;4951679;29;20502;-48
2021/07/19 12:13:15;;;;;;;7.10;4.10;;;36.50;33.90;;;;;;4953821;28;20442;-48
2021/07/19 12:15:50;;;;;;;2.80;2.60;;;36.60;33.30;;;;;;4953025;29;20879;-48
2021/07/19 12:18:50;;;;;;;3.83;3.27;;;36.50;32.10;;;;;;4953057;29;20458;-48
2021/07/19 12:21:18;;;;;;;3.03;2.67;;;36.40;31.20;;;;;;4928601;28;20445;-48
2021/07/19 12:23:54;;;;;;;5.00;3.10;;;35.80;31.20;;;;;;4934908;29;20959;-50
2021/07/19 12:26:32;;;;;;;2.90;2.60;;;35.70;31.10;;;;;;4933737;29;20438;-52
2021/07/19 12:29:04;;;;;;;2.83;2.60;;;35.90;32.20;;;;;;4934500;29;21004;-49
2021/07/19 12:31:31;;;;;;;2.77;2.40;;;36.00;32.20;;;;;;4933956;29;20496;-48
2021/07/19 12:34:03;;;;;;;4.03;2.27;;;36.20;33.00;;;;;;4945564;29;20479;-49
2021/07/19 12:36:29;;;;;;;2.70;2.20;;;36.30;33.60;;;;;;4951048;29;20962;-48
2021/07/19 12:38:55;;;;;;;2.60;2.40;;;36.60;31.60;;;;;;4953751;29;21084;-48
2021/07/19 12:41:21;;;;;;;2.53;2.33;;;36.60;29.90;;;;;;4952948;29;20200;-48
2021/07/19 12:43:47;;;;;;;2.77;2.23;;;36.80;30.20;;;;;;4953578;28;20446;-49
2021/07/19 12:46:14;;;;;;;3.43;2.60;;;36.70;29.50;;;;;;4952786;29;20198;-49
2021/07/19 12:48:49;;;;;;;3.07;2.57;;;36.90;29.00;;;;;;4953597;28;20470;-51
2021/07/19 12:51:23;;;;;;;3.53;3.10;;;37.00;30.10;;;;;;4953079;29;20423;-50